Eaton Rapids, MI (48827)

11:07 PM EDT on October 22, 2014 (GMT -0400)
3 mi ENE of Springport | Change Station
CLOSE
Current Station
Personal Weather Station
Location: Springport, MI
Elevation: 288 m
Nearby Weather Stations

Elev 288 m 42.40 °N, 84.64 °W | Updated 38 seconds ago

Clear
Clear
3.0 °C
Feels Like 3 °C
N
0.0
Wind Variable Wind from East
Gusts 0.0 km/h

Today
High -- | Low -- °C
--% Chance of Precip.
Yesterday
High -- | Low -- °C
Precip. -- mm
7:59 AM 6:45 PM
Waning Crescent, 1% visible
Pressure 1025 hPa
Visibility 16.1 kilometers
Clouds Clear
Windchill 3 °C
Dew Point 1 °C
Humidity 87%
Rainfall -25375 mm
Snow Depth Not available.
UV 0 out of 12
Pollen .30 out of 12
Ozone Good
Flu Activity Sporadic
METAR KFPK 230255Z AUTO 00000KT 10SM CLR 05/03 A3028 RMK AO2 T00480032

More Conditions Fewer Conditions

Pressure 1025 hPa
Visibility 16.1 kilometers
Clouds Clear
Windchill 3 °C
Dew Point 1 °C
Humidity 87%
Rainfall -25375 mm
Snow Depth Not available.
UV 0 out of 12
Pollen .30 out of 12
Ozone Good
Flu Activity Sporadic
METAR KFPK 230255Z AUTO 00000KT 10SM CLR 05/03 A3028 RMK AO2 T00480032

More Conditions Fewer Conditions

10-Day Weather Forecast

Almanac

Astronomy

Oct. 22, 2014 Rise Set
Actual Time 7:59 AM EDT 6:45 PM EDT
Civil Twilight 7:31 AM EDT 7:14 PM EDT
Nautical Twilight 6:58 AM EDT 7:47 PM EDT
Astronomical Twilight 6:25 AM EDT 8:19 PM EDT
Moon 6:38 AM EDT (10/22) 6:12 PM EDT (10/22)
Length of Visible Light 11h 43m
Length of Day
10h 45m
Tomorrow will be 2m 41s shorter.
Waning Crescent, 1% of the Moon is Illuminated
Today
Waning Crescent
Oct 23
New
Oct 30
First Quarter
Nov 6
Full
Nov 14
Last Quarter

Today's Extremes

State Highs State Lows

Community

WunderPhotos

Upload Photos

1,764,121 photos uploaded!

Nearby

Air Quality

  Air Quality AQ Index Pollutant
Yesterday Good
OZONE
Current Good
OZONE
Wednesday Good
PM2.5
Thursday Good
PM2.5
Friday Good
PM2.5
Saturday Good
PM2.5
Sunday Good
PM2.5
Monday Moderate
PM2.5

Snow Depth

Station Depth Elevation
No new snow has been reported.

Earthquake Activity

City Distance Mag. Time & Date
No recent earthquake activity has been reported nearby.
Minimum magnitude displayed is 2.5.

Coastal Water Temperatures

Place Temperature
No Stations Reporting

Nearby Weather Stations